Time;durP1;ratioP1;P1;durP2;ratioP2;P2;SDS_P1;SDS_P2;PMS_P1;PMS_P2;Temp;Humidity;BMP_temperature;BMP_pressure;BME280_temperature;BME280_humidity;BME280_pressure;Samples;Min_cycle;Max_cycle;Signal;HPM_P1;HPM_P2
2022/08/26 00:02:11;;;;;;;17.95;4.03;;;;;;;24.28;100.00;152144.91;5072806;28;20196;-63
2022/08/26 00:04:38;;;;;;;11.68;4.85;;;;;;;24.43;100.00;152181.97;5072846;28;20242;-62
2022/08/26 00:07:06;;;;;;;23.50;4.82;;;;;;;24.46;100.00;152190.91;5072761;28;20246;-63
2022/08/26 00:09:33;;;;;;;14.73;4.20;;;;;;;24.58;100.00;152221.53;5072368;28;20193;-63
2022/08/26 00:12:00;;;;;;;17.83;3.92;;;;;;;24.67;100.00;152241.97;5072699;28;20655;-63
2022/08/26 00:14:27;;;;;;;15.30;3.63;;;;;;;24.73;100.00;152257.31;5071131;28;20208;-63
2022/08/26 00:16:54;;;;;;;19.20;4.03;;;;;;;24.81;100.00;152277.75;5072311;28;20192;-65
2022/08/26 00:19:21;;;;;;;19.27;4.38;;;;;;;24.84;100.00;152285.41;5072175;28;20189;-65
2022/08/26 00:21:49;;;;;;;24.63;5.00;;;;;;;24.85;100.00;152287.97;5072088;28;20259;-64
2022/08/26 00:24:20;;;;;;;12.05;4.07;;;;;;;24.74;100.00;152261.13;5072440;28;20193;-62
2022/08/26 00:26:48;;;;;;;13.30;4.15;;;;;;;24.80;100.00;152275.19;5072450;28;20189;-63
2022/08/26 00:29:17;;;;;;;19.92;3.88;;;;;;;24.76;100.00;152266.25;5072374;28;20193;-63
2022/08/26 00:31:43;;;;;;;8.55;3.63;;;;;;;24.80;100.00;152276.47;5072280;28;20291;-64
2022/08/26 00:34:10;;;;;;;8.43;3.95;;;;;;;24.71;100.00;152252.19;5072048;28;20185;-64
2022/08/26 00:36:38;;;;;;;10.43;3.80;;;;;;;24.87;100.00;152294.38;5072274;28;20184;-66
2022/08/26 00:39:06;;;;;;;11.57;3.50;;;;;;;24.88;100.00;152296.94;5072073;28;20185;-64
2022/08/26 00:41:36;;;;;;;15.52;4.00;;;;;;;24.85;100.00;152289.31;5072157;28;20185;-63
2022/08/26 00:44:04;;;;;;;20.20;4.00;;;;;;;24.85;100.00;152289.31;5072219;28;20271;-63
2022/08/26 00:46:35;;;;;;;15.68;4.00;;;;;;;24.93;100.00;152309.72;5071967;28;20181;-63
2022/08/26 00:49:07;;;;;;;7.30;3.80;;;;;;;24.91;100.00;152303.31;5071847;28;20369;-62
2022/08/26 00:51:42;;;;;;;9.65;3.38;;;;;;;24.80;100.00;152275.19;5072127;28;20207;-63
2022/08/26 00:54:11;;;;;;;13.38;3.55;;;;;;;24.79;100.00;152272.63;5071769;28;20181;-64
2022/08/26 00:56:46;;;;;;;21.20;4.18;;;;;;;24.77;100.00;152268.81;5072290;28;20563;-63
2022/08/26 00:59:15;;;;;;;17.73;3.70;;;;;;;24.78;100.00;152271.34;5071222;28;20563;-63
2022/08/26 01:01:43;;;;;;;10.00;3.13;;;;;;;24.80;100.00;152275.19;5072040;28;20185;-62
2022/08/26 01:04:11;;;;;;;18.38;3.65;;;;;;;24.64;100.00;152234.31;5071682;28;20185;-63
2022/08/26 01:06:38;;;;;;;11.05;3.53;;;;;;;24.66;100.00;152240.69;5071639;28;20195;-62
2022/08/26 01:09:05;;;;;;;18.38;3.53;;;;;;;24.63;100.00;152231.75;5071652;28;20188;-62
2022/08/26 01:11:33;;;;;;;17.05;4.00;;;;;;;24.44;100.00;152184.53;5071633;28;20204;-64
2022/08/26 01:14:04;;;;;;;20.13;3.80;;;;;;;24.64;100.00;152235.59;5071586;28;20216;-63
2022/08/26 01:16:32;;;;;;;20.63;4.03;;;;;;;24.73;100.00;152257.31;5071452;28;20189;-63
2022/08/26 01:19:16;;;;;;;13.02;3.67;;;;;;;24.81;100.00;152279.03;5071924;28;20564;-64
2022/08/26 01:21:51;;;;;;;10.90;3.75;;;;;;;24.79;100.00;152273.91;5071596;28;20228;-62
2022/08/26 01:24:20;;;;;;;13.52;4.03;;;;;;;24.80;100.00;152275.19;5071733;28;20195;-64
2022/08/26 01:26:48;;;;;;;20.05;4.07;;;;;;;24.80;100.00;152276.47;5071975;28;20659;-63
2022/08/26 01:29:18;;;;;;;18.25;3.80;;;;;;;24.66;100.00;152240.69;5071858;28;20646;-64
2022/08/26 01:31:47;;;;;;;7.13;3.35;;;;;;;24.82;100.00;152280.31;5071321;28;20205;-62
2022/08/26 01:34:18;;;;;;;9.30;3.35;;;;;;;24.78;100.00;152271.34;5070280;28;20193;-63
2022/08/26 01:36:46;;;;;;;14.02;3.80;;;;;;;24.87;100.00;152294.38;5071516;28;20189;-63
2022/08/26 01:39:13;;;;;;;17.55;3.65;;;;;;;24.74;100.00;152261.13;5071364;28;20192;-64
2022/08/26 01:41:42;;;;;;;16.35;3.15;;;;;;;24.90;100.00;152302.09;5071706;28;20272;-63
2022/08/26 01:44:15;;;;;;;14.23;3.72;;;;;;;25.00;100.00;152327.59;5071382;28;20185;-64
2022/08/26 01:46:43;;;;;;;16.65;4.10;;;;;;;24.94;100.00;152311.00;5071615;28;20628;-64
2022/08/26 01:49:11;;;;;;;18.90;4.13;;;;;;;24.91;100.00;152304.59;5071330;28;20275;-63
2022/08/26 01:51:39;;;;;;;14.75;3.70;;;;;;;24.76;100.00;152264.97;5071519;28;20208;-63
2022/08/26 01:54:08;;;;;;;10.48;4.00;;;;;;;24.60;100.00;152225.38;5071250;28;20181;-62
2022/08/26 01:56:35;;;;;;;18.00;3.88;;;;;;;24.60;100.00;152224.09;5071228;28;20192;-64
2022/08/26 01:59:08;;;;;;;18.38;3.60;;;;;;;24.60;100.00;152225.38;5071611;28;20203;-62
2022/08/26 02:01:36;;;;;;;7.25;3.40;;;;;;;24.65;100.00;152236.88;5071403;28;20207;-63
2022/08/26 02:04:13;;;;;;;17.23;3.83;;;;;;;24.73;100.00;152258.59;5071179;28;20283;-63
2022/08/26 02:06:40;;;;;;;12.55;3.70;;;;;;;24.70;100.00;152249.63;5071139;28;20185;-63
2022/08/26 02:09:08;;;;;;;13.57;3.72;;;;;;;24.60;100.00;152225.38;5071240;28;20204;-63
2022/08/26 02:11:35;;;;;;;16.35;3.63;;;;;;;24.55;100.00;152212.59;5073066;28;20215;-62
2022/08/26 02:14:09;;;;;;;17.33;3.60;;;;;;;24.35;100.00;152161.53;5074719;28;20192;-64
2022/08/26 02:16:39;;;;;;;19.52;4.18;;;;;;;24.50;100.00;152199.84;5074658;28;20189;-63
2022/08/26 02:19:11;;;;;;;13.57;3.58;;;;;;;24.38;100.00;152169.19;5074561;28;20185;-63
2022/08/26 02:21:39;;;;;;;12.25;3.22;;;;;;;24.54;100.00;152210.03;5074969;28;20236;-65
2022/08/26 02:24:12;;;;;;;13.88;3.58;;;;;;;24.53;100.00;152208.75;5074447;28;20230;-64
2022/08/26 02:26:39;;;;;;;12.10;3.90;;;;;;;24.51;100.00;152202.41;5074515;28;20185;-64
2022/08/26 02:29:13;;;;;;;15.15;3.53;;;;;;;24.31;100.00;152152.63;5074537;28;20192;-64
2022/08/26 02:31:40;;;;;;;19.77;3.50;;;;;;;24.49;100.00;152197.25;5074605;28;20208;-63
2022/08/26 02:34:09;;;;;;;10.95;3.47;;;;;;;24.54;100.00;152211.31;5074164;28;20184;-65
2022/08/26 02:36:36;;;;;;;23.48;3.40;;;;;;;24.52;100.00;152204.97;5074223;28;20185;-64
2022/08/26 02:39:04;;;;;;;11.38;3.15;;;;;;;24.47;100.00;152192.19;5074141;28;20188;-63
2022/08/26 02:41:31;;;;;;;17.40;3.95;;;;;;;24.51;100.00;152202.41;5074414;28;20212;-63
2022/08/26 02:43:59;;;;;;;10.00;3.53;;;;;;;24.51;100.00;152202.41;5074323;28;20533;-63
2022/08/26 02:46:27;;;;;;;6.22;3.47;;;;;;;24.51;100.00;152203.69;5074007;28;20195;-63
2022/08/26 02:48:54;;;;;;;9.60;3.50;;;;;;;24.48;100.00;152196.03;5073995;28;20283;-63
2022/08/26 02:51:21;;;;;;;20.33;3.83;;;;;;;24.40;100.00;152174.31;5073787;28;20208;-63
2022/08/26 02:53:48;;;;;;;10.95;3.83;;;;;;;24.30;100.00;152148.75;5074043;28;20199;-63
2022/08/26 02:56:15;;;;;;;10.75;3.42;;;;;;;24.35;100.00;152162.81;5073838;28;20185;-62
2022/08/26 02:58:42;;;;;;;6.20;3.45;;;;;;;24.31;100.00;152151.34;5073816;28;20195;-63
2022/08/26 03:01:20;;;;;;;7.97;3.40;;;;;;;24.32;100.00;152153.84;5074035;28;20191;-63
2022/08/26 03:03:48;;;;;;;10.07;3.70;;;;;;;24.36;100.00;152165.34;5074250;28;20189;-63
2022/08/26 03:06:15;;;;;;;10.15;3.42;;;;;;;24.14;100.00;152109.16;5073893;28;20207;-63
2022/08/26 03:08:43;;;;;;;22.63;4.05;;;;;;;24.27;100.00;152142.41;5073957;28;20197;-64
2022/08/26 03:11:10;;;;;;;14.95;3.75;;;;;;;24.29;100.00;152146.19;5073724;28;20583;-62
2022/08/26 03:13:37;;;;;;;13.32;3.70;;;;;;;24.10;100.00;152100.16;5073531;28;20188;-62
2022/08/26 03:16:04;;;;;;;10.23;3.35;;;;;;;24.26;100.00;152139.84;5073546;28;20188;-63
2022/08/26 03:18:31;;;;;;;16.45;4.05;;;;;;;24.33;100.00;152156.41;5073421;28;20184;-63
2022/08/26 03:21:05;;;;;;;17.48;3.88;;;;;;;24.35;100.00;152161.53;5073131;28;20196;-63
2022/08/26 03:23:32;;;;;;;14.85;3.67;;;;;;;24.31;100.00;152151.34;5072826;28;20617;-63
2022/08/26 03:26:00;;;;;;;17.90;3.50;;;;;;;24.35;100.00;152161.53;5073571;28;20646;-63
2022/08/26 03:28:27;;;;;;;13.43;3.88;;;;;;;24.50;100.00;152199.84;5073121;28;20189;-63
2022/08/26 03:30:52;;;;;;;9.68;3.55;;;;;;;24.44;100.00;152184.53;5073345;28;20721;-64
2022/08/26 03:33:20;;;;;;;12.18;3.70;;;;;;;24.46;100.00;152190.91;5073225;28;20204;-63
2022/08/26 03:35:47;;;;;;;20.75;4.13;;;;;;;24.39;100.00;152171.75;5073023;28;20232;-63
2022/08/26 03:38:15;;;;;;;10.40;4.05;;;;;;;24.42;100.00;152179.41;5072979;28;20618;-64
2022/08/26 03:40:43;;;;;;;21.85;3.75;;;;;;;24.36;100.00;152164.06;5072985;28;20258;-63
2022/08/26 03:43:10;;;;;;;16.08;3.83;;;;;;;24.30;100.00;152148.75;5073194;28;20196;-63
2022/08/26 03:45:39;;;;;;;10.75;4.05;;;;;;;24.43;100.00;152181.97;5073114;28;20279;-64
2022/08/26 03:48:06;;;;;;;13.68;3.63;;;;;;;24.45;100.00;152187.06;5073149;28;20238;-63
2022/08/26 03:50:35;;;;;;;11.48;3.45;;;;;;;24.52;100.00;152204.97;5072807;28;20191;-63
2022/08/26 03:53:03;;;;;;;6.45;3.78;;;;;;;24.38;100.00;152169.19;5072612;28;20211;-63
2022/08/26 03:55:33;;;;;;;15.85;3.78;;;;;;;24.47;100.00;152192.19;5072607;28;20185;-63
2022/08/26 03:58:00;;;;;;;18.05;3.47;;;;;;;24.46;100.00;152190.91;5072570;28;20200;-63
2022/08/26 04:00:27;;;;;;;18.77;3.75;;;;;;;24.69;100.00;152247.09;5073012;28;20543;-63
2022/08/26 04:02:54;;;;;;;17.65;4.18;;;;;;;24.82;100.00;152281.59;5072860;28;20184;-62
2022/08/26 04:05:23;;;;;;;16.33;3.88;;;;;;;24.90;100.00;152302.09;5072475;28;20185;-63
2022/08/26 04:07:50;;;;;;;14.48;3.75;;;;;;;25.00;100.00;152326.31;5072439;28;20188;-63
2022/08/26 04:10:20;;;;;;;21.92;4.22;;;;;;;25.09;100.00;152348.03;5072595;28;20189;-65
2022/08/26 04:12:49;;;;;;;12.05;3.88;;;;;;;25.13;100.00;152359.53;5072746;28;20208;-63
2022/08/26 04:15:17;;;;;;;10.45;3.53;;;;;;;25.09;100.00;152348.03;5072544;28;20216;-63
2022/08/26 04:17:44;;;;;;;13.18;3.42;;;;;;;25.26;100.00;152392.75;5072817;28;20189;-63
2022/08/26 04:20:12;;;;;;;18.73;3.58;;;;;;;25.45;100.00;152440.06;5070999;28;20202;-63
2022/08/26 04:22:40;;;;;;;11.10;3.65;;;;;;;25.62;100.00;152483.56;5072097;28;20584;-63
2022/08/26 04:25:09;;;;;;;19.83;4.22;;;;;;;25.53;100.00;152460.53;5072524;28;20632;-62
2022/08/26 04:27:36;;;;;;;18.17;3.30;;;;;;;25.65;100.00;152491.22;5072252;28;20177;-63
2022/08/26 04:30:05;;;;;;;18.30;3.63;;;;;;;25.63;100.00;152484.84;5072024;28;20195;-63
2022/08/26 04:32:32;;;;;;;11.88;3.80;;;;;;;25.69;100.00;152501.44;5071919;28;20223;-62
2022/08/26 04:34:59;;;;;;;14.07;3.53;;;;;;;25.84;100.00;152538.50;5071945;28;20449;-63
2022/08/26 04:37:26;;;;;;;17.55;4.10;;;;;;;26.04;100.00;152589.63;5072282;28;20607;-63
2022/08/26 04:39:53;;;;;;;20.88;4.22;;;;;;;26.25;100.00;152643.38;5071950;28;20185;-63
2022/08/26 04:42:21;;;;;;;15.23;3.30;;;;;;;26.49;100.00;152702.16;5072246;28;20191;-63
2022/08/26 04:44:49;;;;;;;21.63;4.25;;;;;;;26.59;100.00;152727.75;5071899;28;20196;-64
2022/08/26 04:47:17;;;;;;;12.57;4.13;;;;;;;26.76;100.00;152772.53;5072068;28;20185;-63
2022/08/26 04:49:44;;;;;;;14.30;4.70;;;;;;;26.91;100.00;152808.34;5070804;28;20197;-63
2022/08/26 04:52:11;;;;;;;19.40;5.22;;;;;;;26.92;100.00;152810.91;5071776;28;20204;-63
2022/08/26 04:54:38;;;;;;;16.85;5.15;;;;;;;27.03;100.00;152839.09;5072179;28;20222;-64
2022/08/26 04:57:05;;;;;;;21.02;4.93;;;;;;;27.25;100.00;152896.63;5072465;28;20193;-64
2022/08/26 04:59:32;;;;;;;16.27;3.72;;;;;;;27.45;100.00;152946.53;5071791;28;20184;-63
2022/08/26 05:02:00;;;;;;;12.43;3.58;;;;;;;27.41;99.72;152936.31;5072199;28;20201;-63
2022/08/26 05:04:29;;;;;;;7.97;3.65;;;;;;;27.40;100.00;152932.47;5071696;28;20195;-64
2022/08/26 05:06:56;;;;;;;7.15;3.67;;;;;;;27.51;97.09;152960.63;5071872;28;20220;-64
2022/08/26 05:09:23;;;;;;;10.48;3.47;;;;;;;27.41;97.93;152936.31;5071658;28;20180;-63
2022/08/26 05:11:50;;;;;;;15.30;3.92;;;;;;;27.52;97.70;152964.50;5071643;28;20215;-64
2022/08/26 05:14:17;;;;;;;10.30;3.50;;;;;;;27.49;94.14;152956.81;5071839;28;20202;-64
2022/08/26 05:16:45;;;;;;;12.65;4.22;;;;;;;27.49;94.33;152955.53;5071897;28;20246;-64
2022/08/26 05:19:11;;;;;;;20.25;4.18;;;;;;;27.34;95.93;152918.38;5071760;28;20547;-65
2022/08/26 05:21:40;;;;;;;27.00;4.88;;;;;;;27.56;94.35;152974.72;5071628;28;20598;-63
2022/08/26 05:24:10;;;;;;;22.85;4.30;;;;;;;27.81;90.78;153036.13;5072040;28;20211;-64
2022/08/26 05:26:37;;;;;;;20.08;4.47;;;;;;;27.94;88.57;153069.41;5071812;28;20198;-64
2022/08/26 05:29:05;;;;;;;20.27;4.40;;;;;;;27.94;86.25;153069.41;5071674;28;20207;-64
2022/08/26 05:31:33;;;;;;;16.70;4.70;;;;;;;28.12;88.14;153115.56;5070195;28;20220;-64
2022/08/26 05:34:03;;;;;;;15.98;4.47;;;;;;;28.23;84.48;153143.69;5070175;28;20199;-64
2022/08/26 05:36:32;;;;;;;21.67;4.43;;;;;;;28.15;85.84;153124.50;5071357;28;20250;-64
2022/08/26 05:39:02;;;;;;;18.38;4.97;;;;;;;28.39;84.75;153184.66;5071605;28;20191;-64
2022/08/26 05:41:31;;;;;;;12.63;4.07;;;;;;;28.97;81.16;153331.97;5071298;28;20185;-64
2022/08/26 05:44:01;;;;;;;21.00;4.88;;;;;;;29.91;75.28;153569.06;5071454;28;20280;-64
2022/08/26 05:46:30;;;;;;;15.98;4.82;;;;;;;30.53;72.35;153725.44;5073518;28;20541;-62
2022/08/26 05:48:58;;;;;;;25.10;12.10;;;;;;;30.74;71.29;153780.56;5075623;28;20563;-63
2022/08/26 05:51:26;;;;;;;16.50;5.00;;;;;;;31.23;69.69;153904.97;5075029;28;20188;-64
2022/08/26 05:53:53;;;;;;;14.07;4.70;;;;;;;32.52;61.78;154230.94;5075389;28;20187;-64
2022/08/26 05:56:23;;;;;;;10.38;4.45;;;;;;;33.54;56.42;154490.34;5075231;28;20245;-64
2022/08/26 05:58:50;;;;;;;14.70;4.32;;;;;;;34.34;53.88;154694.66;5075206;28;20238;-65
2022/08/26 06:01:19;;;;;;;11.23;4.25;;;;;;;34.55;50.05;154746.03;5074825;28;20227;-65
2022/08/26 06:03:51;;;;;;;88.30;62.28;;;;;;;35.03;51.14;154868.16;5074640;28;20188;-65
2022/08/26 06:06:22;;;;;;;32.50;13.77;;;;;;;35.91;49.36;155093.22;5075227;28;20184;-65
2022/08/26 06:08:49;;;;;;;10.27;4.32;;;;;;;35.17;50.02;154904.22;5075103;28;20279;-64
2022/08/26 06:11:18;;;;;;;11.00;6.00;;;;;;;34.30;50.11;154684.38;5074926;28;20639;-63
2022/08/26 06:13:46;;;;;;;14.25;4.70;;;;;;;34.77;49.61;154803.91;5074837;28;20209;-64
2022/08/26 06:16:15;;;;;;;17.27;4.55;;;;;;;34.23;51.84;154665.13;5074733;28;20640;-63
2022/08/26 06:18:46;;;;;;;19.00;5.20;;;;;;;33.67;52.44;154522.50;5074914;28;20211;-63
2022/08/26 06:21:15;;;;;;;19.52;5.70;;;;;;;33.47;53.04;154473.69;5074946;28;20236;-64
2022/08/26 06:26:29;;;;;;;14.43;4.90;;;;;;;34.44;50.89;154717.78;5074425;28;20563;-63
2022/08/26 06:28:57;;;;;;;23.83;5.30;;;;;;;34.19;49.55;154654.84;5074615;28;20283;-63
2022/08/26 06:31:25;;;;;;;14.38;4.75;;;;;;;34.19;50.00;154654.84;5074537;28;20188;-64
2022/08/26 06:33:53;;;;;;;7.38;4.68;;;;;;;34.24;50.76;154667.69;5074651;28;20578;-64
2022/08/26 06:36:22;;;;;;;16.05;5.35;;;;;;;33.21;51.88;154405.59;5074180;28;20417;-64
2022/08/26 06:38:50;;;;;;;28.80;7.93;;;;;;;32.91;56.19;154329.81;5073263;28;20204;-64
2022/08/26 06:41:19;;;;;;;21.58;6.03;;;;;;;32.57;57.08;154243.78;5074110;28;20192;-63
2022/08/26 06:43:47;;;;;;;22.33;5.55;;;;;;;32.29;60.59;154173.22;5073952;28;20196;-63
2022/08/26 06:46:17;;;;;;;31.85;7.40;;;;;;;31.93;62.24;154082.06;5074141;28;20181;-63
2022/08/26 06:48:45;;;;;;;21.92;6.22;;;;;;;31.82;63.06;154052.56;5074590;28;20563;-64
2022/08/26 06:51:14;;;;;;;21.73;6.13;;;;;;;31.67;63.55;154016.63;5073958;28;20197;-64
2022/08/26 06:53:44;;;;;;;18.35;6.78;;;;;;;31.80;65.83;154048.69;5073951;28;20305;-64
2022/08/26 06:56:12;;;;;;;23.95;6.65;;;;;;;31.60;66.67;153998.69;5073806;28;20224;-64
2022/08/26 06:58:40;;;;;;;23.17;6.78;;;;;;;31.56;67.83;153988.44;5072901;28;20184;-65
2022/08/26 07:01:17;;;;;;;22.15;6.40;;;;;;;31.10;68.91;153870.41;5073772;28;20191;-64
2022/08/26 07:03:47;;;;;;;16.38;6.57;;;;;;;31.47;66.82;153964.00;5074001;28;20292;-64
2022/08/26 07:06:14;;;;;;;25.95;6.75;;;;;;;31.26;66.81;153912.72;5074191;28;20208;-61
2022/08/26 07:08:41;;;;;;;18.48;5.88;;;;;;;31.23;67.86;153904.97;5065502;28;20208;-65
2022/08/26 07:11:10;;;;;;;11.10;5.85;;;;;;;31.21;67.04;153898.59;5066059;28;20208;-64
2022/08/26 07:13:38;;;;;;;26.40;6.35;;;;;;;31.27;66.50;153915.22;5069010;28;20222;-64
2022/08/26 07:16:11;;;;;;;22.88;6.45;;;;;;;31.24;65.95;153906.25;5063105;28;20201;-64
2022/08/26 07:18:42;;;;;;;22.60;5.63;;;;;;;31.27;66.89;153915.22;5063561;28;20643;-64
2022/08/26 07:21:12;;;;;;;19.50;6.03;;;;;;;31.30;66.57;153921.66;5058508;28;20279;-65
2022/08/26 07:23:39;;;;;;;25.75;5.95;;;;;;;31.22;66.84;153902.44;5068836;28;20193;-65
2022/08/26 07:26:07;;;;;;;22.00;6.57;;;;;;;31.25;63.90;153910.13;5072746;28;20200;-65
2022/08/26 07:28:34;;;;;;;28.63;6.43;;;;;;;31.40;65.45;153946.06;5073077;28;20682;-64
2022/08/26 07:31:04;;;;;;;20.10;6.53;;;;;;;31.36;65.81;153935.78;5073261;28;20195;-63
2022/08/26 07:33:33;;;;;;;30.60;7.18;;;;;;;30.71;67.66;153772.91;5073522;28;20303;-64
2022/08/26 07:36:01;;;;;;;24.92;6.70;;;;;;;30.30;69.73;153669.00;5073274;28;20185;-64
2022/08/26 07:38:29;;;;;;;27.58;7.32;;;;;;;30.07;71.26;153610.06;5072937;28;20185;-66
2022/08/26 07:40:56;;;;;;;19.88;6.43;;;;;;;29.97;71.99;153584.41;5072000;28;20210;-64
2022/08/26 07:43:23;;;;;;;25.08;5.88;;;;;;;29.50;72.27;153466.50;5073096;28;20556;-64
2022/08/26 07:45:50;;;;;;;21.80;6.55;;;;;;;29.56;73.60;153480.59;5072713;28;20184;-65
2022/08/26 07:48:17;;;;;;;18.15;6.22;;;;;;;29.70;73.56;153515.19;5073065;28;20584;-66
2022/08/26 07:50:44;;;;;;;24.17;6.30;;;;;;;30.00;72.21;153592.13;5072950;28;20185;-64
2022/08/26 07:53:13;;;;;;;14.50;6.22;;;;;;;29.88;71.79;153561.34;5072647;28;20211;-65
2022/08/26 07:55:40;;;;;;;21.63;7.13;;;;;;;30.01;70.95;153593.38;5072698;28;20196;-66
2022/08/26 07:58:07;;;;;;;19.00;6.50;;;;;;;30.10;71.09;153617.72;5072720;28;20180;-64
2022/08/26 08:00:34;;;;;;;23.83;6.65;;;;;;;29.80;71.33;153540.78;5072679;28;20191;-65
2022/08/26 08:03:03;;;;;;;16.98;6.93;;;;;;;29.84;71.15;153551.03;5072435;28;20177;-65
2022/08/26 08:05:31;;;;;;;19.92;6.22;;;;;;;29.99;71.41;153589.56;5072958;28;20185;-65
2022/08/26 08:07:58;;;;;;;15.00;7.07;;;;;;;29.99;71.62;153589.56;5072689;28;20575;-64
2022/08/26 08:10:27;;;;;;;12.32;6.60;;;;;;;30.14;69.86;153626.69;5072715;28;20207;-64
2022/08/26 08:12:56;;;;;;;22.58;6.32;;;;;;;30.32;69.84;153672.84;5072454;28;20239;-64
2022/08/26 08:15:26;;;;;;;16.23;5.75;;;;;;;30.25;68.33;153656.22;5072714;28;20188;-65
2022/08/26 08:17:53;;;;;;;22.88;6.53;;;;;;;30.18;69.76;153638.25;5072446;28;20269;-65
2022/08/26 08:20:21;;;;;;;20.17;6.82;;;;;;;30.35;68.65;153681.81;5072381;28;20201;-64
2022/08/26 08:22:49;;;;;;;22.08;6.50;;;;;;;30.40;67.75;153693.34;5072077;28;20220;-64
2022/08/26 08:25:16;;;;;;;24.35;6.68;;;;;;;30.46;69.91;153707.50;5072472;28;20550;-63
2022/08/26 08:27:47;;;;;;;69.10;39.25;;;;;;;30.73;69.76;153776.72;5073732;28;20185;-63
2022/08/26 08:30:15;;;;;;;35.67;19.27;;;;;;;30.76;67.04;153784.44;5073357;28;20188;-63
2022/08/26 08:32:43;;;;;;;31.88;18.15;;;;;;;30.89;70.00;153816.50;5073171;28;20215;-61
2022/08/26 08:35:12;;;;;;;16.60;6.40;;;;;;;31.02;65.16;153849.88;5072220;28;20204;-65
2022/08/26 08:37:40;;;;;;;28.60;6.35;;;;;;;30.98;65.23;153840.81;5072314;28;20181;-64
2022/08/26 08:40:08;;;;;;;31.35;7.15;;;;;;;30.90;67.36;153819.03;5071891;28;20192;-64
2022/08/26 08:42:45;;;;;;;14.55;6.03;;;;;;;30.94;67.05;153830.56;5072034;28;20177;-64
2022/08/26 08:45:17;;;;;;;19.27;6.22;;;;;;;31.12;64.98;153876.78;5071862;28;20240;-62
2022/08/26 08:47:49;;;;;;;18.95;5.88;;;;;;;31.08;66.29;153866.53;5071957;28;20207;-64
2022/08/26 08:50:23;;;;;;;20.33;6.32;;;;;;;31.16;62.73;153885.75;5072586;28;20185;-65
2022/08/26 08:52:57;;;;;;;18.55;5.97;;;;;;;30.97;63.60;153838.28;5072539;28;20295;-65
2022/08/26 08:55:29;;;;;;;32.25;7.00;;;;;;;30.66;65.47;153758.78;5072026;28;20599;-65
2022/08/26 08:58:03;;;;;;;22.55;7.35;;;;;;;30.62;66.99;153748.53;5070501;28;20283;-65
2022/08/26 09:00:43;;;;;;;33.58;7.20;;;;;;;30.53;66.86;153726.72;5071981;28;20234;-65
2022/08/26 09:03:22;;;;;;;44.25;8.20;;;;;;;30.59;68.35;153740.84;5071874;28;20184;-65
2022/08/26 09:05:51;;;;;;;27.45;7.95;;;;;;;30.69;68.63;153766.47;5072004;28;20630;-64
2022/08/26 09:08:23;;;;;;;35.75;6.80;;;;;;;30.82;68.32;153801.09;5071821;28;20184;-64
2022/08/26 09:10:55;;;;;;;19.38;6.45;;;;;;;30.79;66.91;153792.13;5071990;28;20185;-66
2022/08/26 09:13:24;;;;;;;13.77;6.05;;;;;;;30.69;66.46;153767.75;5071689;28;20205;-65
2022/08/26 09:16:00;;;;;;;19.20;6.25;;;;;;;30.74;67.13;153779.28;5071807;28;20211;-64
2022/08/26 09:18:40;;;;;;;18.40;6.25;;;;;;;30.75;66.10;153783.16;5071540;28;20184;-64
2022/08/26 09:21:10;;;;;;;18.73;5.95;;;;;;;30.76;67.01;153785.72;5073662;28;21076;-65
2022/08/26 09:23:41;;;;;;;26.85;6.22;;;;;;;30.71;67.74;153772.91;5076057;28;20188;-65
2022/08/26 09:26:16;;;;;;;18.17;6.05;;;;;;;30.88;68.69;153815.19;5075506;28;20265;-65
2022/08/26 09:28:47;;;;;;;16.10;5.80;;;;;;;31.06;66.02;153861.44;5075638;28;20271;-64
2022/08/26 09:31:20;;;;;;;18.75;6.25;;;;;;;31.04;67.55;153856.28;5075578;28;20185;-65
2022/08/26 09:33:47;;;;;;;29.35;6.85;;;;;;;31.00;68.03;153846.03;5075135;28;20251;-65
2022/08/26 09:36:21;;;;;;;27.95;6.18;;;;;;;31.17;66.48;153889.63;5074690;28;20181;-65
2022/08/26 09:38:49;;;;;;;34.15;6.47;;;;;;;31.13;65.47;153879.34;5075714;28;20187;-65
2022/08/26 09:41:23;;;;;;;24.65;5.88;;;;;;;31.17;67.11;153889.63;5076066;28;20628;-64
2022/08/26 09:46:53;;;;;;;34.33;6.50;;;;;;;31.24;68.77;153907.56;5110308;27;20535;-64
2022/08/26 09:49:27;;;;;;;27.70;6.70;;;;;;;31.31;67.48;153922.97;5109888;28;20198;-65
2022/08/26 09:52:11;;;;;;;19.42;5.45;;;;;;;31.11;68.44;153874.22;5109955;28;20188;-64
2022/08/26 09:54:38;;;;;;;19.60;6.45;;;;;;;31.13;68.40;153879.34;5109860;28;20677;-64
2022/08/26 09:57:21;;;;;;;28.98;7.05;;;;;;;30.73;69.27;153776.72;5109459;28;20191;-64
2022/08/26 09:59:49;;;;;;;16.77;6.32;;;;;;;30.83;68.74;153803.66;5109965;28;20237;-65
2022/08/26 10:02:29;;;;;;;25.48;6.20;;;;;;;30.53;68.13;153725.44;5102114;28;20195;-64
2022/08/26 10:04:58;;;;;;;23.60;7.05;;;;;;;30.40;72.30;153694.66;5088811;28;20211;-66
2022/08/26 10:07:37;;;;;;;30.02;5.82;;;;;;;30.33;72.29;153676.72;5090584;28;20661;-65
2022/08/26 10:10:08;;;;;;;21.50;6.25;;;;;;;30.30;72.60;153669.00;5096799;28;20202;-65
2022/08/26 10:12:42;;;;;;;32.30;7.15;;;;;;;30.32;75.23;153674.13;5100858;28;20207;-64
2022/08/26 10:15:11;;;;;;;24.02;6.72;;;;;;;30.33;71.83;153676.72;5124779;27;20192;-65
2022/08/26 10:17:46;;;;;;;16.42;5.63;;;;;;;30.09;70.27;153615.16;5094636;28;20234;-65
2022/08/26 10:20:17;;;;;;;20.77;6.07;;;;;;;30.07;72.34;153608.78;5098210;28;20283;-65
2022/08/26 10:22:50;;;;;;;25.75;5.63;;;;;;;29.97;72.70;153584.41;5088974;28;20555;-64
2022/08/26 10:25:21;;;;;;;25.20;5.93;;;;;;;30.00;76.02;153590.84;5088903;28;20204;-64
2022/08/26 10:27:54;;;;;;;19.30;6.22;;;;;;;29.86;78.86;153556.19;5088252;28;20189;-66
2022/08/26 10:30:24;;;;;;;27.25;6.78;;;;;;;29.71;80.95;153517.72;5097918;28;20201;-63
2022/08/26 10:32:58;;;;;;;20.45;6.30;;;;;;;29.74;83.46;153526.75;5109208;28;20195;-65
2022/08/26 10:35:25;;;;;;;23.45;6.32;;;;;;;29.80;80.96;153540.78;5106393;28;20408;-65
2022/08/26 10:37:56;;;;;;;26.88;6.15;;;;;;;29.79;84.90;153538.28;5100222;28;20287;-65
2022/08/26 10:40:25;;;;;;;25.83;6.13;;;;;;;29.73;83.81;153522.88;5108806;28;20632;-64
2022/08/26 10:42:58;;;;;;;25.35;6.15;;;;;;;29.76;84.69;153530.56;5108488;28;20183;-65
2022/08/26 10:45:29;;;;;;;20.75;6.40;;;;;;;29.62;84.75;153495.94;5108284;28;20281;-66
2022/08/26 10:48:03;;;;;;;23.88;7.07;;;;;;;29.83;84.03;153549.75;5108180;28;20194;-66
2022/08/26 10:50:36;;;;;;;26.30;6.22;;;;;;;29.95;83.62;153579.31;5108821;28;20179;-65
2022/08/26 10:53:08;;;;;;;13.60;6.18;;;;;;;30.04;82.02;153602.38;5107257;28;20274;-63
2022/08/26 10:55:40;;;;;;;25.63;6.00;;;;;;;30.20;82.03;153643.38;5108138;28;20186;-64
2022/08/26 10:58:24;;;;;;;20.33;7.90;;;;;;;30.00;81.21;153592.13;5094306;28;20271;-65
2022/08/26 11:03:57;;;;;;;19.33;5.57;;;;;;;30.41;80.35;153695.94;5092143;28;20191;-65
2022/08/26 11:06:27;;;;;;;25.63;6.63;;;;;;;30.33;82.60;153675.44;5074502;28;20689;-65
2022/08/26 11:08:55;;;;;;;22.25;5.72;;;;;;;30.36;83.07;153684.38;5074409;28;20284;-64
2022/08/26 11:11:45;;;;;;;16.25;5.90;;;;;;;30.40;81.83;153694.66;5091209;28;20200;-64
2022/08/26 11:14:31;;;;;;;15.25;6.18;;;;;;;30.45;82.26;153704.94;5093476;28;20192;-65
2022/08/26 11:17:00;;;;;;;25.33;6.68;;;;;;;30.43;81.29;153699.78;5094324;28;20184;-65
2022/08/26 11:20:00;;;;;;;18.55;5.47;;;;;;;30.47;80.17;153710.09;5085471;28;20204;-64
2022/08/26 11:22:28;;;;;;;25.20;6.55;;;;;;;30.46;81.47;153707.50;5061893;28;20688;-64
2022/08/26 11:25:14;;;;;;;20.85;5.57;;;;;;;30.47;82.19;153711.34;5074347;28;20567;-64
2022/08/26 11:28:02;;;;;;;16.77;6.25;;;;;;;30.44;80.84;153702.31;5073789;28;20195;-64
2022/08/26 11:30:51;;;;;;;16.75;6.35;;;;;;;30.62;81.41;153748.53;5074291;28;20257;-65
2022/08/26 11:33:57;;;;;;;34.30;6.25;;;;;;;30.61;80.27;153747.25;5074393;28;20250;-64
2022/08/26 11:36:54;;;;;;;16.30;5.55;;;;;;;30.59;80.97;153740.84;5074150;28;20185;-64